Time;durP1;ratioP1;P1;durP2;ratioP2;P2;SDS_P1;SDS_P2;PMS_P1;PMS_P2;Temp;Humidity;BMP_temperature;BMP_pressure;BME280_temperature;BME280_humidity;BME280_pressure;Samples;Min_cycle;Max_cycle;Signal;HPM_P1;HPM_P2
2021/03/24 00:00:23;;;;;;;17.55;7.65;;;8.20;98.20;;;;;;5094474;28;20032;-78
2021/03/24 00:02:48;;;;;;;15.30;7.95;;;8.10;98.10;;;;;;5076232;28;20028;-77
2021/03/24 00:05:16;;;;;;;18.85;8.23;;;8.10;98.40;;;;;;5087046;28;20044;-83
2021/03/24 00:07:43;;;;;;;15.93;8.48;;;8.10;98.50;;;;;;5088237;28;20036;-77
2021/03/24 00:10:10;;;;;;;17.25;8.85;;;8.00;98.60;;;;;;5094481;28;20147;-78
2021/03/24 00:12:37;;;;;;;19.75;8.35;;;8.00;98.60;;;;;;5089695;28;20036;-78
2021/03/24 00:15:05;;;;;;;15.27;8.15;;;8.00;98.70;;;;;;5079146;28;20101;-84
2021/03/24 00:17:31;;;;;;;14.48;8.10;;;8.00;98.70;;;;;;5071048;28;20032;-79
2021/03/24 00:19:57;;;;;;;18.23;7.97;;;7.90;98.80;;;;;;5086235;28;20028;-78
2021/03/24 00:22:23;;;;;;;15.07;8.00;;;7.90;98.90;;;;;;5094370;28;20058;-79
2021/03/24 00:24:49;;;;;;;19.40;8.07;;;7.80;98.90;;;;;;5094441;28;20456;-79
2021/03/24 00:27:15;;;;;;;15.32;7.82;;;7.80;98.90;;;;;;5094554;28;20028;-80
2021/03/24 00:29:40;;;;;;;13.23;7.50;;;7.80;98.80;;;;;;5094640;28;20078;-79
2021/03/24 00:32:07;;;;;;;20.63;8.25;;;7.80;98.70;;;;;;5090417;28;20481;-81
2021/03/24 00:34:32;;;;;;;18.50;7.72;;;7.70;98.70;;;;;;5059017;28;20036;-81
2021/03/24 00:36:58;;;;;;;17.75;7.70;;;7.70;98.90;;;;;;5079353;28;20383;-83
2021/03/24 00:39:24;;;;;;;21.38;7.75;;;7.60;99.00;;;;;;5075575;28;20091;-78
2021/03/24 00:41:50;;;;;;;15.10;7.75;;;7.60;98.90;;;;;;5079332;28;20028;-80
2021/03/24 00:44:15;;;;;;;13.20;8.30;;;7.60;98.80;;;;;;5093842;28;20039;-80
2021/03/24 00:46:41;;;;;;;35.00;8.60;;;7.70;98.70;;;;;;5092500;28;20380;-85
2021/03/24 00:49:12;;;;;;;15.05;7.60;;;7.70;98.40;;;;;;5093832;28;20052;-79
2021/03/24 00:51:38;;;;;;;16.63;7.93;;;7.70;98.60;;;;;;5093266;28;20441;-79
2021/03/24 00:54:04;;;;;;;11.13;6.57;;;7.70;98.50;;;;;;5093646;28;20128;-78
2021/03/24 00:56:29;;;;;;;15.05;7.22;;;7.70;98.30;;;;;;5079325;28;20036;-77
2021/03/24 00:58:55;;;;;;;11.88;7.05;;;7.70;98.30;;;;;;5079875;28;20032;-80
2021/03/24 01:01:21;;;;;;;20.13;7.93;;;7.70;98.40;;;;;;5087234;28;20036;-80
2021/03/24 01:03:47;;;;;;;17.90;6.60;;;7.70;98.40;;;;;;5091276;28;20114;-81
2021/03/24 01:06:12;;;;;;;14.65;6.47;;;7.70;98.30;;;;;;5087082;28;20047;-78
2021/03/24 01:08:38;;;;;;;19.75;6.60;;;7.70;98.20;;;;;;5080087;28;20116;-78
2021/03/24 01:11:04;;;;;;;13.88;7.45;;;7.70;98.20;;;;;;5086360;28;20028;-78
2021/03/24 01:13:30;;;;;;;13.85;6.63;;;7.70;98.10;;;;;;5086033;28;20488;-79
2021/03/24 01:15:56;;;;;;;15.15;6.70;;;7.80;98.10;;;;;;5090375;28;20423;-80
2021/03/24 01:18:23;;;;;;;13.85;6.85;;;7.80;98.00;;;;;;5082538;28;20029;-79
2021/03/24 01:20:50;;;;;;;20.08;7.03;;;7.70;98.10;;;;;;5067167;28;20032;-79
2021/03/24 01:23:17;;;;;;;16.17;6.60;;;7.70;98.20;;;;;;5053651;28;20024;-79
2021/03/24 01:25:42;;;;;;;10.40;6.38;;;7.70;98.00;;;;;;5086951;28;20033;-80
2021/03/24 01:28:15;;;;;;;20.55;7.20;;;7.70;98.00;;;;;;5072116;28;20038;-79
2021/03/24 01:30:40;;;;;;;15.23;6.53;;;7.70;98.00;;;;;;5084777;28;20035;-85
2021/03/24 01:33:07;;;;;;;15.65;6.50;;;7.70;98.10;;;;;;5058015;28;20413;-77
2021/03/24 01:35:32;;;;;;;18.38;6.28;;;7.70;98.10;;;;;;5075027;28;20036;-78
2021/03/24 01:37:58;;;;;;;12.35;6.15;;;7.70;98.10;;;;;;5085562;28;20013;-82
2021/03/24 01:40:33;;;;;;;11.88;6.68;;;7.70;97.80;;;;;;5088679;28;20481;-78
2021/03/24 01:43:01;;;;;;;14.55;6.38;;;7.70;97.90;;;;;;5085342;28;20032;-78
2021/03/24 01:45:29;;;;;;;13.32;6.22;;;7.70;97.80;;;;;;5076723;28;20495;-81
2021/03/24 01:47:59;;;;;;;13.35;6.50;;;7.70;97.90;;;;;;5063328;28;20036;-82
2021/03/24 01:50:32;;;;;;;12.90;5.95;;;7.60;97.90;;;;;;5086019;28;20028;-78
2021/03/24 01:52:57;;;;;;;14.32;6.50;;;7.70;97.90;;;;;;5062582;28;20043;-78
2021/03/24 01:55:24;;;;;;;10.95;5.93;;;7.70;97.70;;;;;;5074845;28;20451;-81
2021/03/24 01:57:50;;;;;;;13.93;6.53;;;7.70;97.70;;;;;;5080317;28;20016;-81
2021/03/24 02:00:21;;;;;;;18.88;6.53;;;7.70;97.60;;;;;;5077477;28;20044;-83
2021/03/24 02:02:47;;;;;;;14.07;6.57;;;7.70;97.60;;;;;;5072001;28;20017;-77
2021/03/24 02:05:13;;;;;;;12.93;5.80;;;7.70;97.60;;;;;;5071782;28;20169;-79
2021/03/24 02:08:11;;;;;;;14.63;5.85;;;7.70;97.60;;;;;;5072350;28;20108;-79
2021/03/24 02:10:46;;;;;;;12.27;6.20;;;7.70;97.60;;;;;;5062994;28;20044;-79
2021/03/24 02:13:28;;;;;;;10.20;5.70;;;7.60;97.60;;;;;;5069961;28;20032;-76
2021/03/24 02:16:07;;;;;;;9.50;5.50;;;7.70;97.50;;;;;;5071815;28;20031;-78
2021/03/24 02:18:36;;;;;;;12.38;5.65;;;7.70;97.50;;;;;;5058588;28;20029;-79
2021/03/24 02:21:11;;;;;;;11.57;6.40;;;7.70;97.40;;;;;;5072113;28;20063;-77
2021/03/24 02:24:03;;;;;;;13.93;6.00;;;7.70;97.40;;;;;;5058241;28;20033;-80
2021/03/24 02:26:42;;;;;;;10.85;6.28;;;7.60;97.50;;;;;;5054720;28;20040;-81
2021/03/24 02:29:12;;;;;;;14.35;6.50;;;7.60;97.50;;;;;;5072689;28;20043;-79
2021/03/24 02:31:39;;;;;;;15.20;7.03;;;7.60;97.60;;;;;;5085220;28;20025;-79
2021/03/24 02:34:11;;;;;;;13.63;6.15;;;7.60;97.70;;;;;;5075341;28;20084;-77
2021/03/24 02:36:39;;;;;;;15.63;6.47;;;7.60;97.60;;;;;;5071356;28;20027;-77
2021/03/24 02:39:08;;;;;;;13.00;6.00;;;7.60;97.50;;;;;;5071031;28;20883;-78
2021/03/24 02:41:36;;;;;;;14.75;5.82;;;7.60;97.60;;;;;;5071318;28;20025;-82
2021/03/24 02:44:02;;;;;;;12.18;5.78;;;7.50;97.60;;;;;;5072116;28;20067;-78
2021/03/24 02:46:28;;;;;;;13.38;5.85;;;7.60;97.50;;;;;;5071755;28;20036;-82
2021/03/24 02:48:56;;;;;;;11.55;5.32;;;7.50;97.50;;;;;;5053110;28;20123;-79
2021/03/24 02:51:24;;;;;;;12.60;5.70;;;7.50;97.40;;;;;;5079107;28;20055;-79
2021/03/24 02:53:52;;;;;;;11.68;5.47;;;7.60;97.50;;;;;;5084468;28;20051;-79
2021/03/24 02:56:18;;;;;;;10.57;5.75;;;7.60;97.40;;;;;;5091731;28;20032;-81
2021/03/24 02:58:43;;;;;;;11.73;5.82;;;7.50;97.50;;;;;;5091799;28;20055;-80
2021/03/24 03:01:26;;;;;;;10.88;5.63;;;7.60;97.50;;;;;;5079587;28;20029;-79
2021/03/24 03:03:59;;;;;;;9.13;5.25;;;7.60;97.40;;;;;;5071114;28;20048;-79
2021/03/24 03:06:27;;;;;;;11.68;5.38;;;7.50;97.50;;;;;;5088737;28;20376;-78
2021/03/24 03:09:05;;;;;;;11.25;5.13;;;7.50;97.50;;;;;;5092429;28;20020;-80
2021/03/24 03:11:51;;;;;;;9.23;5.30;;;7.50;97.50;;;;;;5091987;28;20472;-79
2021/03/24 03:14:36;;;;;;;15.48;5.70;;;7.50;97.60;;;;;;5065345;28;20408;-78
2021/03/24 03:17:13;;;;;;;12.40;5.93;;;7.50;97.40;;;;;;5083548;28;20024;-77
2021/03/24 03:19:52;;;;;;;10.13;5.25;;;7.40;97.40;;;;;;5095210;28;20028;-77
2021/03/24 03:22:32;;;;;;;11.20;4.95;;;7.40;97.40;;;;;;5076948;28;20040;-80
2021/03/24 03:25:11;;;;;;;9.75;5.35;;;7.40;97.50;;;;;;5095206;28;20484;-77
2021/03/24 03:27:38;;;;;;;10.20;5.10;;;7.50;97.40;;;;;;5070707;28;20024;-77
2021/03/24 03:30:09;;;;;;;9.45;4.82;;;7.50;97.30;;;;;;5095499;28;20043;-77
2021/03/24 03:32:38;;;;;;;9.57;5.13;;;7.50;97.30;;;;;;5088119;28;20088;-77
2021/03/24 03:35:09;;;;;;;8.60;5.53;;;7.50;97.30;;;;;;5082546;28;20036;-78
2021/03/24 03:37:35;;;;;;;9.85;5.70;;;7.50;97.20;;;;;;5090996;28;20043;-77
2021/03/24 03:40:03;;;;;;;8.93;5.20;;;7.40;97.30;;;;;;5095413;28;20040;-77
2021/03/24 03:42:30;;;;;;;14.35;5.15;;;7.50;97.20;;;;;;5092676;28;20384;-80
2021/03/24 03:44:56;;;;;;;14.13;5.60;;;7.40;97.40;;;;;;5095111;28;20094;-77
2021/03/24 03:47:23;;;;;;;14.23;4.80;;;7.50;97.30;;;;;;5076945;28;20051;-79
2021/03/24 03:49:50;;;;;;;9.23;5.20;;;7.50;97.40;;;;;;5094562;28;20100;-77
2021/03/24 03:52:37;;;;;;;10.63;5.18;;;7.50;97.40;;;;;;5094359;28;20051;-75
2021/03/24 03:55:08;;;;;;;11.82;5.18;;;7.50;97.40;;;;;;5075447;28;20115;-77
2021/03/24 03:57:46;;;;;;;15.10;6.50;;;7.50;97.40;;;;;;5056633;28;20033;-78
2021/03/24 04:00:26;;;;;;;11.48;5.65;;;7.40;97.50;;;;;;5080650;28;20028;-77
2021/03/24 04:03:05;;;;;;;8.57;5.45;;;7.40;97.50;;;;;;5094489;28;20503;-78
2021/03/24 04:05:37;;;;;;;17.48;5.22;;;7.40;97.60;;;;;;5094616;28;20028;-77
2021/03/24 04:08:19;;;;;;;12.93;6.15;;;7.30;97.70;;;;;;5094406;28;20024;-77
2021/03/24 04:10:51;;;;;;;16.17;6.05;;;7.30;97.80;;;;;;5068041;28;20031;-77
2021/03/24 04:13:17;;;;;;;8.65;5.65;;;7.30;97.80;;;;;;5090164;28;20044;-77
2021/03/24 04:15:43;;;;;;;14.43;5.03;;;7.30;97.90;;;;;;5094408;28;20555;-78
2021/03/24 04:18:14;;;;;;;14.10;6.03;;;7.30;97.90;;;;;;5086506;28;20052;-78
2021/03/24 04:20:41;;;;;;;12.10;5.32;;;7.30;97.90;;;;;;5063824;28;20059;-77
2021/03/24 04:23:12;;;;;;;12.50;5.28;;;7.30;97.90;;;;;;5078717;28;20034;-78
2021/03/24 04:26:19;;;;;;;9.15;5.55;;;7.30;97.90;;;;;;5094529;28;20032;-78
2021/03/24 04:28:51;;;;;;;16.08;5.95;;;7.30;97.80;;;;;;5051926;28;20036;-77
2021/03/24 04:31:20;;;;;;;9.43;5.65;;;7.30;97.90;;;;;;5093679;28;20033;-80
2021/03/24 04:33:46;;;;;;;8.43;4.68;;;7.30;98.00;;;;;;5088209;28;20550;-78
2021/03/24 04:36:14;;;;;;;11.18;5.65;;;7.30;97.90;;;;;;5085329;28;20024;-78
2021/03/24 04:38:46;;;;;;;8.57;4.75;;;7.30;97.80;;;;;;5073923;28;20055;-77
2021/03/24 04:41:20;;;;;;;8.93;5.78;;;7.30;97.80;;;;;;5075373;28;20383;-81
2021/03/24 04:43:51;;;;;;;10.68;5.75;;;7.30;97.80;;;;;;5093613;28;20020;-78
2021/03/24 04:46:27;;;;;;;13.15;5.63;;;7.30;97.80;;;;;;5075620;28;20032;-78
2021/03/24 04:49:05;;;;;;;9.93;5.60;;;7.30;97.70;;;;;;5093866;28;20027;-80
2021/03/24 04:51:34;;;;;;;10.80;5.50;;;7.40;97.50;;;;;;5093178;28;20048;-78
2021/03/24 04:54:16;;;;;;;9.95;5.32;;;7.40;97.60;;;;;;5091513;28;20028;-78
2021/03/24 04:56:46;;;;;;;10.40;5.22;;;7.40;97.70;;;;;;5076362;28;20103;-77
2021/03/24 04:59:19;;;;;;;11.30;5.28;;;7.40;97.70;;;;;;5064129;28;20105;-80
2021/03/24 05:02:03;;;;;;;9.27;5.57;;;7.40;97.50;;;;;;5090312;28;20024;-81
2021/03/24 05:04:47;;;;;;;12.85;5.28;;;7.40;97.40;;;;;;5093673;28;20032;-77
2021/03/24 05:07:34;;;;;;;11.57;5.85;;;7.40;97.30;;;;;;5075120;28;20052;-77
2021/03/24 05:10:00;;;;;;;12.90;5.10;;;7.50;97.20;;;;;;5092730;28;20037;-78
2021/03/24 05:12:30;;;;;;;11.02;5.78;;;7.50;97.20;;;;;;5093663;28;20032;-79
2021/03/24 05:15:02;;;;;;;13.65;6.05;;;7.50;97.30;;;;;;5091186;28;20048;-78
2021/03/24 05:17:32;;;;;;;14.10;7.57;;;7.50;97.50;;;;;;5069248;28;20020;-78
2021/03/24 05:20:00;;;;;;;12.45;6.38;;;7.60;97.80;;;;;;5079848;28;20063;-77
2021/03/24 05:22:39;;;;;;;16.38;7.63;;;7.60;97.70;;;;;;5092088;28;20051;-78
2021/03/24 05:25:22;;;;;;;10.70;6.63;;;7.70;97.70;;;;;;5093303;28;20030;-79
2021/03/24 05:28:03;;;;;;;16.20;8.45;;;7.90;98.20;;;;;;5067625;28;20058;-77
2021/03/24 05:30:28;;;;;;;13.30;7.15;;;8.30;97.50;;;;;;5092639;28;20040;-77
2021/03/24 05:33:06;;;;;;;10.10;6.78;;;8.60;97.20;;;;;;5092402;28;20123;-78
2021/03/24 05:35:53;;;;;;;13.07;5.95;;;9.00;96.60;;;;;;5092814;28;20105;-78
2021/03/24 05:38:22;;;;;;;14.07;5.43;;;9.40;95.90;;;;;;5071249;28;20057;-78
2021/03/24 05:40:58;;;;;;;8.95;5.25;;;9.80;95.20;;;;;;5090093;28;20126;-78
2021/03/24 05:43:40;;;;;;;27.05;5.78;;;10.20;94.90;;;;;;5092823;28;20032;-79
2021/03/24 05:46:18;;;;;;;7.18;4.57;;;10.60;94.90;;;;;;5092706;28;20496;-78
2021/03/24 05:48:53;;;;;;;13.55;5.13;;;11.00;94.80;;;;;;5081030;28;20032;-78
2021/03/24 05:51:45;;;;;;;15.18;7.78;;;11.50;93.60;;;;;;5075884;28;20090;-79
2021/03/24 05:54:17;;;;;;;;;;;11.70;94.00;;;;;;5088091;28;20080;-80
2021/03/24 05:57:19;;;;;;;12.60;5.53;;;12.00;94.70;;;;;;5083693;28;19946;-79
2021/03/24 06:00:03;;;;;;;9.60;4.60;;;12.30;93.30;;;;;;5080518;28;20052;-79
2021/03/24 06:02:58;;;;;;;14.88;4.72;;;12.70;91.60;;;;;;5077323;28;20235;-78
2021/03/24 06:05:36;;;;;;;10.90;4.03;;;13.10;90.80;;;;;;5077074;28;20024;-78
2021/03/24 06:08:33;;;;;;;10.15;4.50;;;13.50;90.30;;;;;;5081877;28;20033;-78
2021/03/24 06:11:20;;;;;;;17.42;6.22;;;13.70;90.70;;;;;;5075249;28;20590;-80
2021/03/24 06:14:07;;;;;;;13.48;5.55;;;13.80;91.50;;;;;;5083947;28;20036;-78
2021/03/24 06:16:50;;;;;;;14.57;5.47;;;13.80;90.50;;;;;;5083263;28;20029;-80
2021/03/24 06:19:45;;;;;;;13.02;5.35;;;13.80;90.30;;;;;;5074203;28;20032;-78
2021/03/24 06:23:09;;;;;;;13.57;5.38;;;14.20;90.70;;;;;;5074953;28;20036;-79
2021/03/24 06:25:40;;;;;;;10.35;4.97;;;14.60;87.80;;;;;;5021352;28;20036;-79
2021/03/24 06:28:15;;;;;;;9.13;4.75;;;14.60;86.60;;;;;;5073127;28;20063;-79
2021/03/24 06:30:59;;;;;;;10.52;4.18;;;14.80;87.60;;;;;;5075530;28;20511;-79
2021/03/24 06:33:34;;;;;;;9.77;3.72;;;15.10;83.80;;;;;;5091389;28;20459;-82
2021/03/24 06:36:06;;;;;;;7.22;4.28;;;15.40;82.80;;;;;;5092235;28;20027;-79
2021/03/24 06:38:54;;;;;;;10.93;4.28;;;15.50;82.30;;;;;;5091635;28;20049;-79
2021/03/24 06:41:42;;;;;;;11.38;4.88;;;15.50;81.00;;;;;;5058303;28;20036;-79
2021/03/24 06:44:19;;;;;;;7.75;4.05;;;15.50;81.50;;;;;;5093017;28;20024;-83
2021/03/24 06:47:03;;;;;;;16.25;5.65;;;15.50;82.50;;;;;;5076885;28;20119;-81
2021/03/24 06:49:46;;;;;;;18.33;4.53;;;15.80;81.80;;;;;;5095820;28;20035;-80
2021/03/24 06:52:27;;;;;;;11.52;4.75;;;16.30;81.60;;;;;;5095848;28;20477;-83
2021/03/24 06:55:10;;;;;;;12.13;4.72;;;16.90;80.20;;;;;;5070101;28;20036;-79
2021/03/24 06:58:06;;;;;;;10.48;5.07;;;17.10;78.90;;;;;;5068498;28;20115;-74
2021/03/24 07:00:50;;;;;;;9.05;4.38;;;17.10;78.30;;;;;;5074428;28;20032;-76
2021/03/24 07:03:51;;;;;;;11.90;3.80;;;17.20;77.90;;;;;;5074679;28;20043;-79
2021/03/24 07:06:36;;;;;;;12.75;3.92;;;17.60;76.20;;;;;;5081663;28;20043;-73
2021/03/24 07:09:45;;;;;;;10.52;3.95;;;17.90;76.70;;;;;;5075683;28;20036;-73
2021/03/24 07:12:37;;;;;;;10.27;4.32;;;18.60;73.80;;;;;;5077800;28;20128;-73
2021/03/24 07:15:12;;;;;;;23.48;4.57;;;18.70;73.10;;;;;;5076592;28;20048;-73
2021/03/24 07:17:57;;;;;;;16.48;4.65;;;19.00;71.90;;;;;;5078476;28;20020;-75
2021/03/24 07:20:56;;;;;;;10.60;4.40;;;19.20;70.90;;;;;;5049831;28;20067;-73
2021/03/24 07:23:55;;;;;;;12.50;4.93;;;19.50;70.80;;;;;;5071761;28;20040;-75
2021/03/24 07:26:42;;;;;;;11.63;5.45;;;19.60;69.60;;;;;;5083619;28;20032;-73
2021/03/24 07:29:16;;;;;;;9.85;4.95;;;19.90;71.10;;;;;;5087393;28;20028;-73
2021/03/24 07:31:59;;;;;;;17.63;5.82;;;20.30;68.80;;;;;;5087757;28;20028;-71
2021/03/24 07:34:52;;;;;;;13.85;5.57;;;20.30;67.70;;;;;;5082343;28;20037;-72
2021/03/24 07:37:21;;;;;;;12.30;5.55;;;20.40;67.70;;;;;;5086932;28;20396;-73
2021/03/24 07:39:54;;;;;;;10.73;3.75;;;20.60;67.80;;;;;;5089042;28;20029;-75
2021/03/24 07:42:34;;;;;;;9.35;3.28;;;21.00;66.40;;;;;;5090478;28;20040;-81
2021/03/24 07:45:00;;;;;;;7.97;4.38;;;21.30;64.60;;;;;;5075499;28;20376;-73
2021/03/24 07:47:45;;;;;;;7.75;3.85;;;21.30;64.20;;;;;;5077492;28;20032;-72
2021/03/24 07:50:38;;;;;;;14.20;3.90;;;21.40;64.40;;;;;;5077915;28;20079;-83
2021/03/24 07:53:34;;;;;;;7.68;3.95;;;21.60;62.90;;;;;;5080559;28;20131;-78
2021/03/24 07:56:32;;;;;;;9.95;4.72;;;21.90;62.90;;;;;;5068262;28;20469;-75
2021/03/24 07:59:17;;;;;;;10.70;4.35;;;22.10;63.20;;;;;;5074109;28;20043;-81
2021/03/24 08:01:57;;;;;;;20.42;4.65;;;22.10;63.40;;;;;;5079763;28;20028;-76
2021/03/24 08:04:40;;;;;;;23.00;7.30;;;22.00;63.70;;;;;;5081859;28;20033;-73
2021/03/24 08:07:24;;;;;;;15.57;5.70;;;22.10;64.30;;;;;;5073575;28;20024;-76
2021/03/24 08:10:16;;;;;;;10.27;4.72;;;22.30;63.20;;;;;;5070140;28;20036;-73
2021/03/24 08:13:13;;;;;;;10.65;4.68;;;22.40;62.60;;;;;;5074499;28;20028;-80
2021/03/24 08:15:58;;;;;;;20.77;5.70;;;22.40;62.30;;;;;;5073006;28;20119;-73
2021/03/24 08:18:30;;;;;;;14.05;5.40;;;22.40;61.90;;;;;;5060151;28;20060;-73
2021/03/24 08:21:01;;;;;;;;;;;22.50;61.80;;;;;;5071639;28;20024;-74
2021/03/24 08:24:02;;;;;;;14.13;5.97;;;22.60;61.80;;;;;;5075508;28;19904;-73
2021/03/24 08:26:39;;;;;;;13.27;6.32;;;22.60;61.60;;;;;;5074476;28;20037;-73
2021/03/24 08:29:30;;;;;;;16.80;5.95;;;22.70;62.80;;;;;;5072206;28;20127;-81
2021/03/24 08:32:26;;;;;;;16.10;4.68;;;22.90;64.20;;;;;;5071711;28;20048;-74
2021/03/24 08:35:42;;;;;;;11.73;5.00;;;22.80;62.90;;;;;;5075032;28;20037;-73
2021/03/24 08:38:29;;;;;;;16.13;4.38;;;22.90;63.00;;;;;;5067473;28;20175;-74
2021/03/24 08:41:25;;;;;;;10.45;4.47;;;23.10;62.20;;;;;;5069121;28;20512;-73
2021/03/24 08:44:09;;;;;;;7.45;3.90;;;23.30;61.90;;;;;;5073031;28;20025;-73
2021/03/24 08:46:41;;;;;;;6.80;3.38;;;23.60;60.10;;;;;;5068266;28;20438;-73
2021/03/24 08:49:20;;;;;;;11.00;3.67;;;23.80;59.00;;;;;;5078544;28;20021;-73
2021/03/24 08:51:55;;;;;;;8.15;3.65;;;24.20;59.40;;;;;;5079927;28;20043;-71
2021/03/24 08:54:58;;;;;;;10.05;3.63;;;24.40;59.30;;;;;;5070906;28;20506;-73
2021/03/24 08:57:57;;;;;;;5.03;2.92;;;24.30;58.00;;;;;;5075398;28;20029;-73
2021/03/24 09:01:00;;;;;;;9.27;3.67;;;24.20;57.60;;;;;;5072392;28;20627;-81
2021/03/24 09:03:44;;;;;;;20.98;4.10;;;24.00;59.30;;;;;;5071909;28;20044;-73
2021/03/24 09:06:40;;;;;;;10.30;3.75;;;24.00;59.20;;;;;;5069920;28;20781;-81
2021/03/24 09:09:18;;;;;;;10.98;3.47;;;24.00;58.60;;;;;;5067583;28;20037;-73
2021/03/24 09:12:10;;;;;;;6.05;2.95;;;23.70;59.20;;;;;;5072104;28;20071;-73
2021/03/24 09:14:37;;;;;;;12.20;4.20;;;23.60;60.00;;;;;;5066234;28;20036;-72
2021/03/24 09:17:35;;;;;;;6.20;2.83;;;23.60;59.70;;;;;;5051557;28;20397;-73
2021/03/24 09:20:04;;;;;;;8.35;3.55;;;23.40;60.40;;;;;;4985570;28;20039;-73
2021/03/24 09:23:18;;;;;;;10.00;3.72;;;23.30;60.30;;;;;;5077614;28;20024;-73
2021/03/24 09:26:26;;;;;;;11.82;3.70;;;23.00;61.10;;;;;;5061316;28;20101;-72
2021/03/24 09:29:16;;;;;;;11.43;3.40;;;22.90;61.20;;;;;;5078181;28;20111;-72
2021/03/24 09:31:50;;;;;;;6.70;3.05;;;22.70;62.40;;;;;;5085713;28;20067;-72
2021/03/24 09:35:12;;;;;;;7.35;3.70;;;22.20;63.90;;;;;;5090839;28;20044;-74
2021/03/24 09:40:41;;;;;;;11.52;4.03;;;21.70;66.60;;;;;;5073224;28;20032;-74
2021/03/24 09:43:26;;;;;;;10.20;4.35;;;21.40;67.20;;;;;;5071505;28;20528;-73
2021/03/24 09:46:11;;;;;;;14.38;5.32;;;21.40;67.50;;;;;;5072442;28;20047;-73
2021/03/24 09:48:50;;;;;;;11.95;4.45;;;21.10;68.10;;;;;;5069631;28;20151;-78
2021/03/24 09:51:21;;;;;;;9.05;3.80;;;21.10;69.00;;;;;;5070664;28;20101;-72
2021/03/24 09:53:48;;;;;;;11.02;4.05;;;21.20;68.10;;;;;;5052845;28;20067;-72
2021/03/24 09:56:16;;;;;;;16.13;4.30;;;21.10;68.60;;;;;;5075951;28;20034;-75
2021/03/24 09:59:02;;;;;;;9.15;4.03;;;21.00;68.50;;;;;;5073811;28;20813;-73
2021/03/24 10:01:31;;;;;;;9.30;4.22;;;21.00;68.00;;;;;;5072541;28;20381;-73
2021/03/24 10:04:19;;;;;;;11.82;4.50;;;20.80;67.60;;;;;;5071617;28;20056;-73
2021/03/24 10:06:48;;;;;;;8.80;4.32;;;20.30;68.60;;;;;;5068699;28;20107;-73
2021/03/24 10:09:34;;;;;;;12.15;4.55;;;19.90;69.60;;;;;;5071672;28;20029;-72
2021/03/24 10:12:23;;;;;;;10.93;4.88;;;19.40;71.20;;;;;;5071353;28;20430;-75
2021/03/24 10:15:20;;;;;;;10.25;4.15;;;19.30;71.80;;;;;;5027506;28;20040;-72
2021/03/24 10:17:53;;;;;;;9.98;4.28;;;19.30;72.40;;;;;;5067127;28;20039;-72
2021/03/24 10:20:40;;;;;;;10.38;4.65;;;19.30;71.70;;;;;;5072697;28;20489;-72
2021/03/24 10:23:34;;;;;;;9.82;4.50;;;19.40;71.50;;;;;;5052797;28;20531;-73
2021/03/24 10:26:22;;;;;;;9.50;4.05;;;19.20;72.40;;;;;;5073789;28;20481;-72
2021/03/24 10:28:54;;;;;;;19.77;7.90;;;19.20;72.60;;;;;;5071732;28;20025;-72
2021/03/24 10:31:22;;;;;;;11.35;6.70;;;19.00;72.40;;;;;;5071243;28;20033;-75
2021/03/24 10:33:50;;;;;;;11.05;5.70;;;18.90;72.30;;;;;;5070914;28;20041;-72
2021/03/24 10:36:36;;;;;;;12.60;6.43;;;19.00;73.20;;;;;;5069387;28;20029;-72
2021/03/24 10:39:14;;;;;;;18.98;6.10;;;18.90;72.30;;;;;;5068983;28;20040;-72
2021/03/24 10:41:43;;;;;;;20.23;5.28;;;18.50;72.90;;;;;;5054108;28;20033;-72
2021/03/24 10:44:39;;;;;;;11.10;5.13;;;18.40;73.10;;;;;;5062831;28;20059;-86
2021/03/24 10:47:19;;;;;;;9.90;4.57;;;18.40;73.10;;;;;;5062985;28;20061;-84
2021/03/24 10:50:00;;;;;;;11.30;4.38;;;18.30;72.70;;;;;;5062623;28;20029;-73
2021/03/24 10:52:36;;;;;;;10.40;4.72;;;17.90;72.70;;;;;;5062462;28;20044;-73
2021/03/24 10:55:06;;;;;;;12.80;5.13;;;17.70;74.20;;;;;;5062302;28;20056;-73
2021/03/24 10:57:44;;;;;;;11.18;5.15;;;17.50;74.20;;;;;;5060719;28;20375;-73
2021/03/24 11:00:24;;;;;;;8.57;4.40;;;17.50;74.50;;;;;;5069040;28;20625;-81
2021/03/24 11:02:56;;;;;;;9.65;3.85;;;17.60;75.60;;;;;;5062245;28;20037;-74
2021/03/24 11:05:37;;;;;;;13.48;4.03;;;17.50;76.00;;;;;;5051924;28;20022;-73
2021/03/24 11:08:27;;;;;;;12.55;4.75;;;17.30;76.50;;;;;;5057638;28;20033;-73
2021/03/24 11:10:59;;;;;;;10.18;4.93;;;17.20;76.20;;;;;;5055304;28;20033;-73
2021/03/24 11:13:28;;;;;;;;;;;17.10;78.10;;;;;;5045348;28;20041;-73
2021/03/24 11:15:56;;;;;;;10.40;4.30;;;17.10;76.60;;;;;;5064643;28;19959;-77
2021/03/24 11:18:47;;;;;;;10.57;4.35;;;17.10;76.70;;;;;;5047720;28;20035;-76
2021/03/24 11:21:31;;;;;;;7.35;3.60;;;17.10;76.60;;;;;;5052106;28;20032;-78
2021/03/24 11:24:30;;;;;;;9.48;4.30;;;17.20;77.10;;;;;;5068060;28;20033;-78
2021/03/24 11:27:13;;;;;;;10.07;4.20;;;17.10;76.60;;;;;;5071879;28;20465;-82
2021/03/24 11:30:06;;;;;;;13.55;4.80;;;17.10;78.80;;;;;;5071782;28;20037;-76
2021/03/24 11:32:41;;;;;;;11.20;4.05;;;16.90;79.40;;;;;;5038078;28;20520;-80
2021/03/24 11:35:20;;;;;;;6.70;4.00;;;16.90;77.90;;;;;;5068903;28;20493;-76
2021/03/24 11:37:49;;;;;;;11.68;4.70;;;16.80;77.20;;;;;;5061164;28;20816;-77
2021/03/24 11:40:32;;;;;;;7.40;4.50;;;16.70;79.10;;;;;;5065097;28;20071;-75
2021/03/24 11:43:03;;;;;;;12.07;5.18;;;16.60;80.20;;;;;;5060121;28;20112;-75
2021/03/24 11:45:31;;;;;;;18.77;4.95;;;16.60;80.10;;;;;;5042705;28;20456;-77
2021/03/24 11:48:17;;;;;;;9.57;5.05;;;16.60;80.00;;;;;;5065787;28;20064;-81
2021/03/24 11:51:02;;;;;;;15.52;5.10;;;16.60;79.20;;;;;;5064414;28;20119;-74
2021/03/24 11:53:37;;;;;;;13.88;5.10;;;16.50;81.50;;;;;;5070455;28;20041;-74
2021/03/24 11:56:31;;;;;;;9.75;4.50;;;16.50;81.10;;;;;;5069807;28;20044;-75
2021/03/24 11:59:26;;;;;;;7.40;4.25;;;16.30;81.00;;;;;;5069971;28;20048;-74
2021/03/24 12:02:11;;;;;;;10.18;4.53;;;16.40;83.70;;;;;;4984020;28;20031;-76
2021/03/24 12:04:46;;;;;;;7.38;3.97;;;16.30;84.40;;;;;;5070246;28;20032;-74
2021/03/24 12:07:21;;;;;;;9.70;4.35;;;16.20;85.60;;;;;;5048528;28;20128;-73
2021/03/24 12:09:47;;;;;;;10.07;4.40;;;16.20;85.70;;;;;;5060281;28;20440;-73
2021/03/24 12:12:21;;;;;;;13.25;4.63;;;16.10;86.40;;;;;;5063555;28;20037;-74
2021/03/24 12:15:16;;;;;;;9.13;5.07;;;16.00;87.20;;;;;;5063521;28;20110;-74
2021/03/24 12:17:42;;;;;;;8.15;4.30;;;16.10;86.70;;;;;;5057756;28;20033;-74
2021/03/24 12:20:16;;;;;;;10.18;4.50;;;16.00;87.30;;;;;;5060689;28;20082;-74
2021/03/24 12:22:54;;;;;;;11.38;5.35;;;15.90;88.80;;;;;;5062249;28;20029;-73
2021/03/24 12:25:54;;;;;;;12.38;4.05;;;15.90;89.10;;;;;;5061940;28;20032;-74
2021/03/24 12:28:27;;;;;;;16.50;5.35;;;15.80;87.20;;;;;;5064562;28;20037;-74
2021/03/24 12:31:04;;;;;;;13.48;4.85;;;15.80;90.00;;;;;;5042897;28;20037;-75
2021/03/24 12:33:31;;;;;;;13.48;4.97;;;15.70;90.40;;;;;;5063557;28;20123;-74
2021/03/24 12:36:13;;;;;;;8.00;4.63;;;15.60;89.60;;;;;;5064862;28;20048;-74
2021/03/24 12:38:51;;;;;;;9.50;4.45;;;15.50;90.40;;;;;;5058739;28;20388;-76
2021/03/24 12:41:37;;;;;;;13.80;4.63;;;15.40;91.40;;;;;;5060955;28;20056;-74
2021/03/24 12:44:30;;;;;;;8.02;4.25;;;15.40;91.30;;;;;;5062186;28;20898;-78
2021/03/24 12:46:58;;;;;;;9.85;5.50;;;15.30;90.90;;;;;;5043081;28;20067;-83
2021/03/24 12:49:33;;;;;;;49.63;6.70;;;15.20;91.90;;;;;;5063343;28;20381;-74
2021/03/24 12:52:24;;;;;;;17.85;5.13;;;15.20;92.40;;;;;;5062682;28;20055;-78
2021/03/24 12:54:50;;;;;;;12.18;5.70;;;15.10;92.80;;;;;;5062906;28;20041;-75
2021/03/24 12:57:30;;;;;;;7.90;5.40;;;15.00;92.80;;;;;;5061147;28;20021;-74
2021/03/24 13:00:08;;;;;;;10.23;5.18;;;15.00;93.00;;;;;;5063361;28;20086;-75
2021/03/24 13:02:39;;;;;;;17.17;5.68;;;14.90;93.00;;;;;;5066075;28;20028;-78
2021/03/24 13:05:23;;;;;;;11.18;5.78;;;14.80;93.20;;;;;;5064641;28;20392;-75
2021/03/24 13:07:49;;;;;;;12.85;5.22;;;14.80;93.00;;;;;;5063124;28;20029;-77
2021/03/24 13:10:26;;;;;;;10.75;5.15;;;14.80;93.00;;;;;;5063962;28;20179;-75
2021/03/24 13:13:05;;;;;;;14.18;5.28;;;14.80;93.30;;;;;;5061023;28;20104;-78
2021/03/24 13:16:35;;;;;;;15.25;6.60;;;14.80;93.30;;;;;;5044331;28;20037;-75
2021/03/24 13:19:24;;;;;;;9.55;5.18;;;14.80;93.50;;;;;;4979498;28;20043;-74
2021/03/24 13:22:37;;;;;;;14.30;4.95;;;14.80;94.40;;;;;;4978710;28;20106;-78
2021/03/24 13:25:03;;;;;;;13.63;5.72;;;14.80;93.20;;;;;;4994650;28;20044;-76
2021/03/24 13:27:40;;;;;;;16.52;5.75;;;14.80;93.30;;;;;;5062492;28;20464;-81
2021/03/24 13:30:38;;;;;;;12.23;5.57;;;14.80;93.10;;;;;;5063861;28;20068;-85
2021/03/24 13:33:07;;;;;;;15.15;5.60;;;14.80;93.30;;;;;;5061730;28;20041;-74
2021/03/24 13:35:41;;;;;;;14.02;5.97;;;14.70;93.10;;;;;;5064486;28;20028;-74
2021/03/24 13:38:33;;;;;;;12.23;5.25;;;14.70;93.30;;;;;;5071912;28;20036;-82
2021/03/24 13:41:02;;;;;;;14.60;5.70;;;14.60;93.30;;;;;;5053938;28;20076;-75
2021/03/24 13:43:50;;;;;;;23.27;5.60;;;14.60;93.70;;;;;;5066829;28;20052;-75